createdAt,value
2019-03-01T00:03:12.840Z,20.14
2019-03-01T00:08:27.112Z,20.48
2019-03-01T00:14:31.173Z,19.52
2019-03-01T00:20:24.233Z,21.82
2019-03-01T00:26:26.264Z,19.25
2019-03-01T00:32:16.788Z,22.70
2019-03-01T00:38:26.348Z,20.80
2019-03-01T00:44:38.929Z,22.10
2019-03-01T00:49:41.919Z,21.25
2019-03-01T00:54:45.005Z,23.25
2019-03-01T00:59:47.973Z,20.85
2019-03-01T01:04:51.035Z,21.42
2019-03-01T01:15:15.147Z,22.40
2019-03-01T01:20:18.198Z,22.73
2019-03-01T01:25:21.210Z,20.50
2019-03-01T01:30:24.314Z,21.80
2019-03-01T01:35:30.222Z,21.93
2019-03-01T01:40:33.208Z,22.30
2019-03-01T01:45:36.244Z,19.77
2019-03-01T01:50:39.317Z,22.37
2019-03-01T01:55:42.555Z,21.20
2019-03-01T02:00:45.572Z,22.00
2019-03-01T02:05:48.742Z,22.13
2019-03-01T02:10:52.244Z,23.92
2019-03-01T02:15:55.318Z,20.68
2019-03-01T02:20:58.296Z,20.37
2019-03-01T02:26:01.327Z,21.87
2019-03-01T02:31:06.215Z,22.40
2019-03-01T02:36:09.301Z,24.25
2019-03-01T02:41:12.426Z,23.87
2019-03-01T02:46:15.627Z,22.55
2019-03-01T02:51:18.626Z,24.23
2019-03-01T02:56:21.914Z,22.35
2019-03-01T03:01:24.907Z,22.37
2019-03-01T03:06:42.558Z,22.40
2019-03-01T03:11:46.553Z,21.00
2019-03-01T03:16:49.604Z,24.50
2019-03-01T03:21:52.625Z,23.20
2019-03-01T03:26:55.625Z,24.15
2019-03-01T03:31:58.749Z,19.90
2019-03-01T03:37:01.779Z,23.18
2019-03-01T03:42:05.043Z,22.00
2019-03-01T03:47:08.147Z,22.82
2019-03-01T03:52:11.196Z,23.60
2019-03-01T03:57:14.399Z,25.32
2019-03-01T04:02:17.379Z,25.37
2019-03-01T04:07:20.698Z,24.02
2019-03-01T04:12:23.708Z,23.10
2019-03-01T04:17:26.765Z,25.23
2019-03-01T04:22:30.110Z,25.57
2019-03-01T04:27:33.178Z,27.02
2019-03-01T04:32:36.753Z,20.77
2019-03-01T04:37:39.913Z,24.37
2019-03-01T04:42:42.966Z,27.13
2019-03-01T04:47:46.073Z,24.45
2019-03-01T04:52:49.539Z,24.12
2019-03-01T04:57:52.497Z,28.10
2019-03-01T05:02:55.950Z,25.25
2019-03-01T05:07:59.036Z,26.68
2019-03-01T05:13:02.421Z,26.35
2019-03-01T05:18:05.511Z,29.50
2019-03-01T05:23:08.615Z,26.73
2019-03-01T05:28:11.632Z,27.20
2019-03-01T05:33:14.581Z,26.77
2019-03-01T05:38:21.753Z,26.62
2019-03-01T05:43:22.592Z,26.37
2019-03-01T05:48:25.717Z,26.60
2019-03-01T05:53:28.765Z,26.82
2019-03-01T05:58:44.919Z,27.20
2019-03-01T06:04:05.580Z,26.17
2019-03-01T06:10:00.112Z,26.70
2019-03-01T06:15:53.714Z,32.13
2019-03-01T06:21:35.555Z,26.10
2019-03-01T06:27:42.361Z,28.87
2019-03-01T06:33:32.536Z,26.93
2019-03-01T06:39:39.986Z,24.65
2019-03-01T06:45:54.922Z,25.07
2019-03-01T06:51:04.862Z,21.30
2019-03-01T06:56:08.113Z,20.55
2019-03-01T07:01:18.627Z,20.08
2019-03-01T07:06:21.605Z,18.87
2019-03-01T07:11:24.537Z,20.50
2019-03-01T07:16:27.675Z,22.07
2019-03-01T07:21:30.662Z,16.70
2019-03-01T07:26:33.677Z,19.45
2019-03-01T07:31:36.736Z,22.02
2019-03-01T07:36:39.732Z,22.95
2019-03-01T07:41:42.894Z,19.82
2019-03-01T07:46:52.613Z,22.80
2019-03-01T07:51:51.182Z,23.90
2019-03-01T07:56:54.295Z,19.20
2019-03-01T08:01:57.327Z,22.17
2019-03-01T08:07:00.384Z,21.75
2019-03-01T08:12:03.718Z,24.23
2019-03-01T08:17:08.388Z,24.35
2019-03-01T08:22:11.503Z,22.60
2019-03-01T08:27:14.701Z,25.12
2019-03-01T08:32:17.675Z,21.60
2019-03-01T08:37:20.765Z,23.20
2019-03-01T08:42:23.732Z,22.55
2019-03-01T08:47:26.691Z,20.00
2019-03-01T08:52:29.679Z,23.47
2019-03-01T08:57:32.661Z,22.77
2019-03-01T09:02:35.631Z,22.07
2019-03-01T09:07:38.686Z,19.77
2019-03-01T09:12:41.659Z,25.72
2019-03-01T09:17:44.857Z,21.60
2019-03-01T09:22:47.880Z,23.95
2019-03-01T09:27:50.892Z,25.77
2019-03-01T09:32:54.358Z,23.67
2019-03-01T09:37:57.923Z,19.40
2019-03-01T09:43:01.192Z,24.70
2019-03-01T09:48:05.190Z,19.92
2019-03-01T09:53:08.370Z,21.87
2019-03-01T09:58:11.464Z,17.75
2019-03-01T10:03:14.430Z,16.63
2019-03-01T10:08:17.952Z,17.67
2019-03-01T10:13:21.039Z,20.57
2019-03-01T10:18:24.180Z,21.23
2019-03-01T10:23:27.151Z,21.80
2019-03-01T10:28:30.165Z,18.62
2019-03-01T10:33:33.198Z,22.07
2019-03-01T10:38:36.666Z,20.92
2019-03-01T10:43:39.822Z,22.37
2019-03-01T10:48:42.864Z,19.67
2019-03-01T10:53:47.840Z,20.70
2019-03-01T10:58:50.912Z,17.95
2019-03-01T11:03:53.940Z,19.10
2019-03-01T11:08:57.089Z,20.17
2019-03-01T11:14:00.092Z,20.62
2019-03-01T11:19:03.172Z,19.07
2019-03-01T11:24:06.457Z,23.38
2019-03-01T11:29:09.473Z,20.20
2019-03-01T11:34:12.575Z,20.72
2019-03-01T11:39:16.873Z,22.15
2019-03-01T11:44:19.982Z,23.60
2019-03-01T11:49:23.114Z,20.60
2019-03-01T11:54:28.944Z,22.05
2019-03-01T11:59:32.104Z,22.97
2019-03-01T12:04:35.100Z,23.05
2019-03-01T12:09:39.450Z,18.45
2019-03-01T12:14:42.581Z,19.15
2019-03-01T12:19:45.666Z,20.37
2019-03-01T12:24:48.734Z,18.73
2019-03-01T12:29:51.763Z,20.97
2019-03-01T12:34:54.836Z,23.07
2019-03-01T12:39:57.851Z,23.12
2019-03-01T12:45:00.882Z,22.32
2019-03-01T12:50:04.849Z,21.25
2019-03-01T12:55:12.316Z,19.95
2019-03-01T13:00:27.695Z,25.02
2019-03-01T13:05:30.664Z,24.50
2019-03-01T13:10:36.896Z,23.22
2019-03-01T13:15:38.602Z,21.33
2019-03-01T13:20:41.645Z,24.95
2019-03-01T13:25:44.750Z,22.40
2019-03-01T13:30:47.777Z,25.40
2019-03-01T13:35:51.033Z,26.82
2019-03-01T13:40:54.268Z,25.12
2019-03-01T13:45:57.282Z,25.17
2019-03-01T13:51:00.369Z,23.30
2019-03-01T13:56:03.580Z,25.25
2019-03-01T14:01:07.652Z,24.67
2019-03-01T14:06:10.737Z,25.20
2019-03-01T14:11:15.142Z,22.42
2019-03-01T14:16:20.542Z,29.63
2019-03-01T14:21:23.692Z,24.30
2019-03-01T14:26:26.726Z,25.20
2019-03-01T14:31:29.695Z,29.72
2019-03-01T14:36:32.763Z,32.75
2019-03-01T14:41:35.742Z,33.58
2019-03-01T14:46:38.888Z,31.85
2019-03-01T14:51:46.530Z,34.43
2019-03-01T14:56:53.688Z,33.73
2019-03-01T15:02:20.607Z,31.52
2019-03-01T15:12:26.202Z,35.30
2019-03-01T15:17:29.376Z,32.88
2019-03-01T15:22:32.412Z,29.00
2019-03-01T15:27:39.715Z,37.50
2019-03-01T15:32:40.732Z,36.63
2019-03-01T15:37:43.891Z,37.93
2019-03-01T15:42:47.034Z,29.92
2019-03-01T15:47:50.533Z,36.40
2019-03-01T15:52:56.088Z,37.00
2019-03-01T15:57:59.542Z,37.70
2019-03-01T16:03:03.345Z,38.45
2019-03-01T16:08:08.448Z,36.50
2019-03-01T16:13:12.215Z,33.40
2019-03-01T16:18:16.245Z,39.35
2019-03-01T16:23:19.161Z,40.17
2019-03-01T16:28:22.389Z,36.73
2019-03-01T16:33:26.303Z,37.23
2019-03-01T16:38:30.539Z,38.50
2019-03-01T16:43:33.723Z,32.10
2019-03-01T16:48:36.734Z,39.10
2019-03-01T16:53:40.608Z,37.98
2019-03-01T16:58:44.735Z,39.60
2019-03-01T17:03:49.612Z,38.23
2019-03-01T17:08:53.280Z,40.15
2019-03-01T17:13:59.589Z,44.57
2019-03-01T17:19:01.345Z,44.10
2019-03-01T17:24:04.437Z,51.18
2019-03-01T17:29:07.495Z,42.35
2019-03-01T17:34:10.575Z,24.98
2019-03-01T17:39:16.731Z,15.00
2019-03-01T17:44:21.358Z,13.95
2019-03-01T17:49:24.378Z,15.73
2019-03-01T17:54:27.567Z,14.30
2019-03-01T17:59:30.720Z,15.00
2019-03-01T18:04:36.721Z,18.23
2019-03-01T18:09:38.676Z,19.00
2019-03-01T18:14:41.811Z,16.12
2019-03-01T18:19:44.757Z,17.13
2019-03-01T18:24:49.911Z,17.20
2019-03-01T18:29:52.719Z,14.50
2019-03-01T18:34:55.769Z,20.55
2019-03-01T18:39:58.744Z,18.70
2019-03-01T18:45:03.547Z,17.07
2019-03-01T18:50:12.033Z,17.57
2019-03-01T18:55:17.445Z,15.57
2019-03-01T19:00:32.581Z,17.70
2019-03-01T19:05:36.605Z,15.70
2019-03-01T19:10:39.525Z,15.40
2019-03-01T19:15:42.662Z,17.57
2019-03-01T19:20:46.948Z,16.35
2019-03-01T19:25:50.035Z,18.52
2019-03-01T19:30:53.116Z,17.62
2019-03-01T19:35:56.118Z,19.77
2019-03-01T19:40:59.184Z,18.75
2019-03-01T19:46:02.188Z,19.02
2019-03-01T19:51:05.255Z,16.75
2019-03-01T19:56:08.244Z,16.65
2019-03-01T20:01:11.462Z,19.30
2019-03-01T20:06:14.805Z,17.82
2019-03-01T20:11:17.826Z,21.35
2019-03-01T20:16:22.740Z,15.38
2019-03-01T20:21:25.722Z,16.32
2019-03-01T20:26:28.822Z,18.90
2019-03-01T20:31:31.918Z,18.75
2019-03-01T20:36:34.992Z,18.48
2019-03-01T20:41:40.077Z,19.37
2019-03-01T20:46:43.959Z,19.65
2019-03-01T20:51:48.009Z,20.48
2019-03-01T20:56:51.636Z,20.90
2019-03-01T21:01:55.677Z,21.02
2019-03-01T21:06:58.755Z,20.82
2019-03-01T21:12:01.921Z,21.90
2019-03-01T21:17:04.965Z,21.00
2019-03-01T21:22:08.003Z,24.47
2019-03-01T21:27:10.960Z,19.80
2019-03-01T21:32:14.643Z,19.85
2019-03-01T21:37:17.975Z,20.85
2019-03-01T21:42:21.268Z,19.25
2019-03-01T21:47:24.466Z,19.70
2019-03-01T21:52:29.593Z,18.10
2019-03-01T21:57:32.436Z,15.87
2019-03-01T22:02:35.484Z,17.50
2019-03-01T22:07:38.649Z,17.23
2019-03-01T22:12:41.733Z,15.63
2019-03-01T22:17:45.379Z,16.05
2019-03-01T22:22:49.789Z,16.33
2019-03-01T22:27:52.799Z,16.17
2019-03-01T22:32:55.989Z,16.00
2019-03-01T22:38:00.918Z,15.03
2019-03-01T22:43:04.317Z,13.70
2019-03-01T22:48:08.527Z,14.43
2019-03-01T22:53:12.719Z,15.65
2019-03-01T22:58:16.574Z,13.20
2019-03-01T23:03:20.209Z,13.62
2019-03-01T23:08:23.369Z,13.68
2019-03-01T23:13:26.488Z,14.47
2019-03-01T23:18:29.530Z,23.67
2019-03-01T23:23:32.650Z,15.87
2019-03-01T23:28:35.617Z,16.93
2019-03-01T23:33:38.689Z,14.70
2019-03-01T23:38:41.740Z,13.88
2019-03-01T23:43:44.807Z,13.68
2019-03-01T23:48:48.877Z,14.07
2019-03-01T23:53:52.667Z,13.62
2019-03-01T23:58:55.638Z,14.00
